sensor_id;sensor_type;location;lat;lon;timestamp;pressure;altitude;pressure_sealevel;temperature;humidity
13765;BME280;6953;48.810;9.204;2023-04-28T00:00:26;98554.81;;;13.63;84.89
13765;BME280;6953;48.810;9.204;2023-04-28T00:02:52;98541.63;;;13.76;84.42
13765;BME280;6953;48.810;9.204;2023-04-28T00:05:19;98554.09;;;13.86;83.80
13765;BME280;6953;48.810;9.204;2023-04-28T00:07:44;98489.66;;;13.53;83.28
13765;BME280;6953;48.810;9.204;2023-04-28T00:10:10;98554.22;;;13.97;82.72
13765;BME280;6953;48.810;9.204;2023-04-28T00:12:36;98532.59;;;13.92;82.44
13765;BME280;6953;48.810;9.204;2023-04-28T00:15:02;98538.59;;;14.07;82.06
13765;BME280;6953;48.810;9.204;2023-04-28T00:17:28;98523.19;;;14.01;82.65
13765;BME280;6953;48.810;9.204;2023-04-28T00:19:54;98535.75;;;14.10;82.45
13765;BME280;6953;48.810;9.204;2023-04-28T00:22:19;98530.81;;;14.05;82.19
13765;BME280;6953;48.810;9.204;2023-04-28T00:24:45;98535.38;;;14.16;81.40
13765;BME280;6953;48.810;9.204;2023-04-28T00:27:10;98525.31;;;14.21;81.46
13765;BME280;6953;48.810;9.204;2023-04-28T00:29:36;98427.09;;;13.67;80.75
13765;BME280;6953;48.810;9.204;2023-04-28T00:32:02;98499.38;;;14.02;80.14
13765;BME280;6953;48.810;9.204;2023-04-28T00:34:27;98514.13;;;14.30;80.08
13765;BME280;6953;48.810;9.204;2023-04-28T00:36:57;98468.88;;;13.98;79.75
13765;BME280;6953;48.810;9.204;2023-04-28T00:39:22;98504.75;;;14.26;79.23
13765;BME280;6953;48.810;9.204;2023-04-28T00:41:48;98520.69;;;14.37;79.43
13765;BME280;6953;48.810;9.204;2023-04-28T00:44:13;98518.34;;;14.32;79.70
13765;BME280;6953;48.810;9.204;2023-04-28T00:46:39;98508.44;;;14.23;79.56
13765;BME280;6953;48.810;9.204;2023-04-28T00:49:04;98510.22;;;14.23;79.41
13765;BME280;6953;48.810;9.204;2023-04-28T00:51:30;98506.63;;;14.24;79.33
13765;BME280;6953;48.810;9.204;2023-04-28T00:53:57;98245.84;;;12.73;79.18
13765;BME280;6953;48.810;9.204;2023-04-28T00:56:23;98250.78;;;12.77;79.65
13765;BME280;6953;48.810;9.204;2023-04-28T00:58:51;98496.41;;;14.19;80.05
13765;BME280;6953;48.810;9.204;2023-04-28T01:01:17;98268.81;;;12.83;79.58
13765;BME280;6953;48.810;9.204;2023-04-28T01:03:43;98495.81;;;14.16;79.94
13765;BME280;6953;48.810;9.204;2023-04-28T01:06:09;98504.63;;;14.27;79.19
13765;BME280;6953;48.810;9.204;2023-04-28T01:08:36;98511.59;;;14.28;79.19
13765;BME280;6953;48.810;9.204;2023-04-28T01:11:01;98503.66;;;14.28;79.10
13765;BME280;6953;48.810;9.204;2023-04-28T01:13:27;98493.34;;;14.25;79.21
13765;BME280;6953;48.810;9.204;2023-04-28T01:15:54;98500.50;;;14.36;78.83
13765;BME280;6953;48.810;9.204;2023-04-28T01:18:20;98230.66;;;12.76;78.77
13765;BME280;6953;48.810;9.204;2023-04-28T01:20:45;98481.41;;;14.32;79.43
13765;BME280;6953;48.810;9.204;2023-04-28T01:23:12;98483.22;;;14.19;78.96
13765;BME280;6953;48.810;9.204;2023-04-28T01:25:37;98487.50;;;14.45;78.43
13765;BME280;6953;48.810;9.204;2023-04-28T01:28:02;98317.47;;;13.52;78.47
13765;BME280;6953;48.810;9.204;2023-04-28T01:30:28;98203.09;;;12.94;79.16
13765;BME280;6953;48.810;9.204;2023-04-28T01:32:53;98496.56;;;14.54;78.91
13765;BME280;6953;48.810;9.204;2023-04-28T01:35:18;98413.28;;;14.14;78.70
13765;BME280;6953;48.810;9.204;2023-04-28T01:37:44;98469.94;;;14.57;77.73
13765;BME280;6953;48.810;9.204;2023-04-28T01:40:09;98464.53;;;14.58;77.29
13765;BME280;6953;48.810;9.204;2023-04-28T01:42:35;98465.06;;;14.63;76.95
13765;BME280;6953;48.810;9.204;2023-04-28T01:45:01;98238.16;;;13.32;76.92
13765;BME280;6953;48.810;9.204;2023-04-28T02:02:01;98442.28;;;15.65;77.05
13765;BME280;6953;48.810;9.204;2023-04-28T02:04:28;98445.19;;;15.84;75.55
13765;BME280;6953;48.810;9.204;2023-04-28T02:07:03;98450.84;;;15.79;75.25
13765;BME280;6953;48.810;9.204;2023-04-28T02:09:29;98433.16;;;15.58;75.26
13765;BME280;6953;48.810;9.204;2023-04-28T02:11:58;98437.56;;;15.47;75.17
13765;BME280;6953;48.810;9.204;2023-04-28T02:14:28;98431.19;;;15.38;75.12
13765;BME280;6953;48.810;9.204;2023-04-28T02:16:58;98444.88;;;15.32;75.84
13765;BME280;6953;48.810;9.204;2023-04-28T02:19:26;98426.03;;;15.13;76.65
13765;BME280;6953;48.810;9.204;2023-04-28T02:21:53;98442.72;;;15.14;76.78
13765;BME280;6953;48.810;9.204;2023-04-28T02:24:20;98449.44;;;15.07;77.34
13765;BME280;6953;48.810;9.204;2023-04-28T02:26:49;98443.75;;;15.00;78.27
13765;BME280;6953;48.810;9.204;2023-04-28T02:29:19;98437.97;;;14.95;78.60
13765;BME280;6953;48.810;9.204;2023-04-28T02:31:47;98433.97;;;14.90;79.63
13765;BME280;6953;48.810;9.204;2023-04-28T02:34:15;98418.22;;;14.77;80.24
13765;BME280;6953;48.810;9.204;2023-04-28T02:36:44;98423.16;;;14.82;80.49
13765;BME280;6953;48.810;9.204;2023-04-28T02:39:11;98404.09;;;14.66;80.35
13765;BME280;6953;48.810;9.204;2023-04-28T02:41:39;98421.16;;;14.73;80.91
13765;BME280;6953;48.810;9.204;2023-04-28T02:44:08;98421.38;;;14.70;80.75
13765;BME280;6953;48.810;9.204;2023-04-28T02:46:37;98431.94;;;14.70;81.03
13765;BME280;6953;48.810;9.204;2023-04-28T02:49:05;98433.75;;;14.69;81.23
13765;BME280;6953;48.810;9.204;2023-04-28T02:51:34;98433.75;;;14.69;81.41
13765;BME280;6953;48.810;9.204;2023-04-28T02:54:01;98431.00;;;14.71;81.34
13765;BME280;6953;48.810;9.204;2023-04-28T02:56:35;98420.47;;;14.58;81.23
13765;BME280;6953;48.810;9.204;2023-04-28T02:59:07;98438.34;;;14.55;81.33
13765;BME280;6953;48.810;9.204;2023-04-28T03:01:38;98441.03;;;14.43;82.35
13765;BME280;6953;48.810;9.204;2023-04-28T03:04:07;98401.03;;;14.00;82.88
13765;BME280;6953;48.810;9.204;2023-04-28T03:06:37;98453.03;;;14.23;83.49
13765;BME280;6953;48.810;9.204;2023-04-28T03:09:05;98444.59;;;14.18;84.19
13765;BME280;6953;48.810;9.204;2023-04-28T03:11:37;98443.97;;;14.15;84.66
13765;BME280;6953;48.810;9.204;2023-04-28T03:14:07;98447.84;;;14.09;85.19
13765;BME280;6953;48.810;9.204;2023-04-28T03:16:36;98450.28;;;14.00;86.39
13765;BME280;6953;48.810;9.204;2023-04-28T03:19:06;98446.50;;;13.91;87.62
13765;BME280;6953;48.810;9.204;2023-04-28T03:21:37;98418.69;;;13.75;88.87
13765;BME280;6953;48.810;9.204;2023-04-28T03:24:08;98430.06;;;13.75;89.64
13765;BME280;6953;48.810;9.204;2023-04-28T03:26:36;98420.66;;;13.71;89.98
13765;BME280;6953;48.810;9.204;2023-04-28T03:29:06;98424.38;;;13.69;90.86
13765;BME280;6953;48.810;9.204;2023-04-28T03:31:36;98428.91;;;13.67;91.18
13765;BME280;6953;48.810;9.204;2023-04-28T03:34:05;98433.31;;;13.66;91.40
13765;BME280;6953;48.810;9.204;2023-04-28T03:36:31;98422.06;;;13.64;92.23
13765;BME280;6953;48.810;9.204;2023-04-28T03:39:01;98412.47;;;13.63;93.90
13765;BME280;6953;48.810;9.204;2023-04-28T03:41:27;98404.25;;;13.55;94.08
13765;BME280;6953;48.810;9.204;2023-04-28T03:43:56;98421.13;;;13.65;94.37
13765;BME280;6953;48.810;9.204;2023-04-28T03:46:26;98419.09;;;13.69;94.43
13765;BME280;6953;48.810;9.204;2023-04-28T03:48:55;98420.13;;;13.66;94.74
13765;BME280;6953;48.810;9.204;2023-04-28T03:51:23;98421.81;;;13.67;94.92
13765;BME280;6953;48.810;9.204;2023-04-28T03:53:51;98414.78;;;13.68;95.54
13765;BME280;6953;48.810;9.204;2023-04-28T03:56:21;98393.69;;;13.55;96.15
13765;BME280;6953;48.810;9.204;2023-04-28T03:58:49;98409.84;;;13.63;96.74
13765;BME280;6953;48.810;9.204;2023-04-28T04:01:18;98405.31;;;13.65;97.38
13765;BME280;6953;48.810;9.204;2023-04-28T04:03:51;98405.38;;;13.64;97.62
13765;BME280;6953;48.810;9.204;2023-04-28T04:06:22;98411.41;;;13.66;98.03
13765;BME280;6953;48.810;9.204;2023-04-28T04:09:13;98401.25;;;13.72;98.03
13765;BME280;6953;48.810;9.204;2023-04-28T04:11:44;98395.25;;;13.70;97.93
13765;BME280;6953;48.810;9.204;2023-04-28T04:14:11;98366.38;;;13.44;98.34
13765;BME280;6953;48.810;9.204;2023-04-28T04:16:39;98400.75;;;13.67;98.35
13765;BME280;6953;48.810;9.204;2023-04-28T04:19:09;98404.31;;;13.66;98.57
13765;BME280;6953;48.810;9.204;2023-04-28T04:21:36;98398.53;;;13.61;98.26
13765;BME280;6953;48.810;9.204;2023-04-28T04:24:08;98376.53;;;13.50;98.40
13765;BME280;6953;48.810;9.204;2023-04-28T04:26:36;98399.09;;;13.54;98.61
13765;BME280;6953;48.810;9.204;2023-04-28T04:29:05;98400.31;;;13.48;98.30
13765;BME280;6953;48.810;9.204;2023-04-28T04:31:35;98393.28;;;13.49;98.03
13765;BME280;6953;48.810;9.204;2023-04-28T04:34:06;98377.06;;;13.43;97.92
13765;BME280;6953;48.810;9.204;2023-04-28T04:36:35;98385.91;;;13.42;97.39
13765;BME280;6953;48.810;9.204;2023-04-28T04:39:09;98398.84;;;13.57;96.99
13765;BME280;6953;48.810;9.204;2023-04-28T04:41:38;98402.44;;;13.68;96.56
13765;BME280;6953;48.810;9.204;2023-04-28T04:44:05;98381.44;;;13.67;96.00
13765;BME280;6953;48.810;9.204;2023-04-28T04:46:32;98395.38;;;13.81;95.74
13765;BME280;6953;48.810;9.204;2023-04-28T04:49:03;98394.41;;;13.82;96.54
13765;BME280;6953;48.810;9.204;2023-04-28T04:51:33;98398.28;;;13.89;96.50
13765;BME280;6953;48.810;9.204;2023-04-28T04:54:03;98393.66;;;13.93;96.96
13765;BME280;6953;48.810;9.204;2023-04-28T04:56:35;98391.09;;;13.91;96.72
13765;BME280;6953;48.810;9.204;2023-04-28T04:59:04;98394.91;;;13.87;97.54
13765;BME280;6953;48.810;9.204;2023-04-28T05:01:34;98388.94;;;13.85;97.41
13765;BME280;6953;48.810;9.204;2023-04-28T05:04:01;98388.94;;;13.85;97.86
13765;BME280;6953;48.810;9.204;2023-04-28T05:06:28;98384.59;;;13.84;98.83
13765;BME280;6953;48.810;9.204;2023-04-28T05:08:56;98391.66;;;13.84;99.47
13765;BME280;6953;48.810;9.204;2023-04-28T05:11:23;98161.53;;;12.49;99.50
13765;BME280;6953;48.810;9.204;2023-04-28T05:13:51;98384.81;;;13.81;99.71
13765;BME280;6953;48.810;9.204;2023-04-28T05:16:17;98396.00;;;13.72;100.00
13765;BME280;6953;48.810;9.204;2023-04-28T05:18:44;98379.97;;;13.63;100.00
13765;BME280;6953;48.810;9.204;2023-04-28T05:21:10;98392.31;;;13.62;100.00
13765;BME280;6953;48.810;9.204;2023-04-28T05:23:38;98365.44;;;13.45;100.00
13765;BME280;6953;48.810;9.204;2023-04-28T05:26:08;98390.63;;;13.61;100.00
13765;BME280;6953;48.810;9.204;2023-04-28T05:28:36;98395.25;;;13.58;100.00
13765;BME280;6953;48.810;9.204;2023-04-28T05:31:03;98391.59;;;13.60;100.00
13765;BME280;6953;48.810;9.204;2023-04-28T05:33:31;98402.00;;;13.62;100.00
13765;BME280;6953;48.810;9.204;2023-04-28T05:35:58;98403.50;;;13.66;100.00
13765;BME280;6953;48.810;9.204;2023-04-28T05:38:24;98403.63;;;13.64;100.00
13765;BME280;6953;48.810;9.204;2023-04-28T05:40:50;98399.91;;;13.67;100.00
13765;BME280;6953;48.810;9.204;2023-04-28T05:43:16;98404.03;;;13.71;100.00
13765;BME280;6953;48.810;9.204;2023-04-28T05:45:42;98376.72;;;13.59;100.00
13765;BME280;6953;48.810;9.204;2023-04-28T05:48:08;98364.16;;;13.50;100.00
13765;BME280;6953;48.810;9.204;2023-04-28T05:50:35;98399.50;;;13.73;100.00
13765;BME280;6953;48.810;9.204;2023-04-28T05:53:01;98303.06;;;13.21;100.00
13765;BME280;6953;48.810;9.204;2023-04-28T05:55:32;98404.09;;;13.82;100.00
13765;BME280;6953;48.810;9.204;2023-04-28T05:58:02;98398.94;;;13.80;100.00
13765;BME280;6953;48.810;9.204;2023-04-28T06:00:31;98368.81;;;13.72;100.00
13765;BME280;6953;48.810;9.204;2023-04-28T06:02:59;98392.28;;;13.87;100.00
13765;BME280;6953;48.810;9.204;2023-04-28T06:05:26;98397.13;;;13.93;100.00
13765;BME280;6953;48.810;9.204;2023-04-28T06:07:53;98315.25;;;13.47;100.00
13765;BME280;6953;48.810;9.204;2023-04-28T06:10:21;98339.59;;;13.62;100.00
13765;BME280;6953;48.810;9.204;2023-04-28T06:12:49;98388.88;;;13.98;100.00
13765;BME280;6953;48.810;9.204;2023-04-28T06:15:15;98389.72;;;13.98;100.00
13765;BME280;6953;48.810;9.204;2023-04-28T06:17:42;98371.09;;;13.89;100.00
13765;BME280;6953;48.810;9.204;2023-04-28T06:20:09;98382.03;;;13.95;100.00
13765;BME280;6953;48.810;9.204;2023-04-28T06:22:37;98388.47;;;13.91;100.00
13765;BME280;6953;48.810;9.204;2023-04-28T06:25:04;98394.69;;;13.90;100.00
13765;BME280;6953;48.810;9.204;2023-04-28T06:27:31;98353.97;;;13.46;100.00
13765;BME280;6953;48.810;9.204;2023-04-28T06:29:58;98342.44;;;13.59;100.00
13765;BME280;6953;48.810;9.204;2023-04-28T06:32:24;98327.94;;;13.42;100.00
13765;BME280;6953;48.810;9.204;2023-04-28T06:34:51;98392.59;;;13.83;100.00
13765;BME280;6953;48.810;9.204;2023-04-28T06:37:17;98370.69;;;13.70;100.00
13765;BME280;6953;48.810;9.204;2023-04-28T06:39:43;98382.91;;;13.83;100.00
13765;BME280;6953;48.810;9.204;2023-04-28T06:42:10;98393.97;;;13.88;100.00
13765;BME280;6953;48.810;9.204;2023-04-28T06:44:36;98361.88;;;13.94;100.00
13765;BME280;6953;48.810;9.204;2023-04-28T06:47:04;98359.41;;;13.80;100.00
13765;BME280;6953;48.810;9.204;2023-04-28T06:49:30;98371.47;;;14.08;100.00
13765;BME280;6953;48.810;9.204;2023-04-28T06:51:58;98252.88;;;13.35;100.00
13765;BME280;6953;48.810;9.204;2023-04-28T06:54:25;98315.34;;;13.70;100.00
13765;BME280;6953;48.810;9.204;2023-04-28T06:56:52;98365.03;;;13.99;100.00
13765;BME280;6953;48.810;9.204;2023-04-28T06:59:19;98320.06;;;13.77;100.00
13765;BME280;6953;48.810;9.204;2023-04-28T07:01:46;98368.47;;;14.12;100.00
13765;BME280;6953;48.810;9.204;2023-04-28T07:04:14;98366.91;;;14.22;100.00
13765;BME280;6953;48.810;9.204;2023-04-28T07:06:41;98368.47;;;14.25;100.00
13765;BME280;6953;48.810;9.204;2023-04-28T07:09:08;98312.72;;;13.93;100.00
13765;BME280;6953;48.810;9.204;2023-04-28T07:11:35;98354.53;;;14.23;100.00
13765;BME280;6953;48.810;9.204;2023-04-28T07:14:02;98346.84;;;14.20;100.00
13765;BME280;6953;48.810;9.204;2023-04-28T07:16:30;98330.28;;;14.18;100.00
13765;BME280;6953;48.810;9.204;2023-04-28T07:18:57;98351.47;;;14.29;100.00
13765;BME280;6953;48.810;9.204;2023-04-28T07:21:23;98279.81;;;13.86;100.00
13765;BME280;6953;48.810;9.204;2023-04-28T07:23:51;98350.72;;;14.27;100.00
13765;BME280;6953;48.810;9.204;2023-04-28T07:26:19;98275.22;;;13.77;100.00
13765;BME280;6953;48.810;9.204;2023-04-28T07:28:47;98360.56;;;14.25;100.00
13765;BME280;6953;48.810;9.204;2023-04-28T07:31:16;98350.28;;;14.33;100.00
13765;BME280;6953;48.810;9.204;2023-04-28T07:33:43;98336.63;;;14.39;100.00
13765;BME280;6953;48.810;9.204;2023-04-28T07:36:10;98336.19;;;14.45;100.00
13765;BME280;6953;48.810;9.204;2023-04-28T07:38:37;98340.31;;;14.59;100.00
13765;BME280;6953;48.810;9.204;2023-04-28T07:41:04;98345.50;;;14.61;100.00
13765;BME280;6953;48.810;9.204;2023-04-28T07:43:31;98341.78;;;14.63;100.00
13765;BME280;6953;48.810;9.204;2023-04-28T07:45:57;98339.88;;;14.65;100.00
13765;BME280;6953;48.810;9.204;2023-04-28T07:48:25;98346.25;;;14.63;100.00
13765;BME280;6953;48.810;9.204;2023-04-28T07:50:53;98305.66;;;14.30;100.00
13765;BME280;6953;48.810;9.204;2023-04-28T07:53:25;97903.59;;;12.15;100.00
13765;BME280;6953;48.810;9.204;2023-04-28T07:55:53;98344.84;;;14.81;100.00
13765;BME280;6953;48.810;9.204;2023-04-28T07:58:20;98293.06;;;14.67;100.00
13765;BME280;6953;48.810;9.204;2023-04-28T08:00:47;98344.56;;;14.96;100.00
13765;BME280;6953;48.810;9.204;2023-04-28T08:03:15;98188.09;;;14.02;100.00
13765;BME280;6953;48.810;9.204;2023-04-28T08:05:43;98356.31;;;15.03;100.00
13765;BME280;6953;48.810;9.204;2023-04-28T08:08:11;98361.38;;;15.06;100.00
13765;BME280;6953;48.810;9.204;2023-04-28T08:10:39;98362.69;;;15.12;100.00
13765;BME280;6953;48.810;9.204;2023-04-28T08:13:07;98365.97;;;15.15;100.00
13765;BME280;6953;48.810;9.204;2023-04-28T08:15:35;98372.47;;;15.22;100.00
13765;BME280;6953;48.810;9.204;2023-04-28T08:18:02;98332.66;;;15.02;100.00
13765;BME280;6953;48.810;9.204;2023-04-28T08:20:31;98378.03;;;15.30;100.00
13765;BME280;6953;48.810;9.204;2023-04-28T08:23:00;98399.56;;;15.26;100.00
13765;BME280;6953;48.810;9.204;2023-04-28T08:25:27;98411.63;;;15.17;100.00
13765;BME280;6953;48.810;9.204;2023-04-28T08:27:54;98420.47;;;15.05;100.00
13765;BME280;6953;48.810;9.204;2023-04-28T08:30:21;98423.81;;;14.96;100.00
13765;BME280;6953;48.810;9.204;2023-04-28T08:32:49;98395.06;;;14.92;100.00
13765;BME280;6953;48.810;9.204;2023-04-28T08:35:17;98404.69;;;14.93;100.00
13765;BME280;6953;48.810;9.204;2023-04-28T08:37:44;98469.66;;;14.72;100.00
13765;BME280;6953;48.810;9.204;2023-04-28T08:40:15;98402.50;;;15.21;100.00
13765;BME280;6953;48.810;9.204;2023-04-28T08:42:42;98407.91;;;15.54;100.00
13765;BME280;6953;48.810;9.204;2023-04-28T08:45:13;98412.34;;;15.75;100.00
13765;BME280;6953;48.810;9.204;2023-04-28T08:47:40;98404.66;;;15.83;100.00
13765;BME280;6953;48.810;9.204;2023-04-28T08:50:11;98332.28;;;15.41;100.00
13765;BME280;6953;48.810;9.204;2023-04-28T08:52:39;98306.94;;;14.58;100.00
13765;BME280;6953;48.810;9.204;2023-04-28T08:55:08;98372.06;;;15.61;100.00
13765;BME280;6953;48.810;9.204;2023-04-28T08:57:42;98418.00;;;15.82;100.00
13765;BME280;6953;48.810;9.204;2023-04-28T09:00:09;98429.91;;;15.98;100.00
13765;BME280;6953;48.810;9.204;2023-04-28T09:02:37;98422.94;;;16.19;100.00
13765;BME280;6953;48.810;9.204;2023-04-28T09:05:07;98421.13;;;16.31;100.00
13765;BME280;6953;48.810;9.204;2023-04-28T09:07:35;98428.22;;;16.19;100.00
13765;BME280;6953;48.810;9.204;2023-04-28T09:10:18;98407.19;;;15.85;100.00
13765;BME280;6953;48.810;9.204;2023-04-28T09:12:47;98409.47;;;15.78;100.00
13765;BME280;6953;48.810;9.204;2023-04-28T09:15:35;98428.72;;;15.91;100.00
13765;BME280;6953;48.810;9.204;2023-04-28T09:18:03;98429.34;;;15.95;100.00
13765;BME280;6953;48.810;9.204;2023-04-28T09:20:33;98316.88;;;15.35;100.00
13765;BME280;6953;48.810;9.204;2023-04-28T09:23:16;98382.06;;;15.79;100.00
13765;BME280;6953;48.810;9.204;2023-04-28T09:25:59;98391.94;;;15.88;100.00
13765;BME280;6953;48.810;9.204;2023-04-28T09:28:28;98423.41;;;16.13;100.00
13765;BME280;6953;48.810;9.204;2023-04-28T09:30:55;98345.16;;;15.78;100.00
13765;BME280;6953;48.810;9.204;2023-04-28T09:33:23;98431.03;;;16.40;100.00
13765;BME280;6953;48.810;9.204;2023-04-28T09:35:50;98427.13;;;16.55;100.00
13765;BME280;6953;48.810;9.204;2023-04-28T09:38:19;98412.69;;;16.59;100.00
13765;BME280;6953;48.810;9.204;2023-04-28T09:40:53;98283.06;;;15.82;100.00
13765;BME280;6953;48.810;9.204;2023-04-28T09:43:32;98432.63;;;16.73;100.00
13765;BME280;6953;48.810;9.204;2023-04-28T09:46:05;98422.28;;;17.02;100.00
13765;BME280;6953;48.810;9.204;2023-04-28T09:48:39;98428.47;;;17.43;100.00
13765;BME280;6953;48.810;9.204;2023-04-28T09:51:10;98383.94;;;17.26;100.00
13765;BME280;6953;48.810;9.204;2023-04-28T09:53:40;98377.91;;;17.24;100.00
13765;BME280;6953;48.810;9.204;2023-04-28T09:56:09;98415.97;;;17.75;100.00
13765;BME280;6953;48.810;9.204;2023-04-28T09:58:39;98425.50;;;18.07;100.00
13765;BME280;6953;48.810;9.204;2023-04-28T10:01:09;98416.41;;;18.30;100.00
13765;BME280;6953;48.810;9.204;2023-04-28T10:03:39;98386.81;;;18.63;100.00
13765;BME280;6953;48.810;9.204;2023-04-28T10:06:09;98413.69;;;19.64;100.00
13765;BME280;6953;48.810;9.204;2023-04-28T10:08:37;98403.41;;;20.78;99.28
13765;BME280;6953;48.810;9.204;2023-04-28T10:11:06;98407.06;;;20.95;97.36
13765;BME280;6953;48.810;9.204;2023-04-28T10:13:35;98387.25;;;20.80;97.25
13765;BME280;6953;48.810;9.204;2023-04-28T10:16:05;98403.09;;;20.81;97.19
13765;BME280;6953;48.810;9.204;2023-04-28T10:18:36;98373.75;;;20.37;97.27
13765;BME280;6953;48.810;9.204;2023-04-28T10:21:05;98409.31;;;20.28;98.08
13765;BME280;6953;48.810;9.204;2023-04-28T10:24:25;98403.25;;;20.53;95.46
13765;BME280;6953;48.810;9.204;2023-04-28T10:27:07;98402.13;;;20.99;93.27
13765;BME280;6953;48.810;9.204;2023-04-28T10:29:35;98412.88;;;21.07;91.24
13765;BME280;6953;48.810;9.204;2023-04-28T10:34:43;98214.81;;;23.01;80.13
13765;BME280;6953;48.810;9.204;2023-04-28T10:37:10;98395.09;;;24.66;77.30
13765;BME280;6953;48.810;9.204;2023-04-28T10:39:48;98368.56;;;24.32;78.19
13765;BME280;6953;48.810;9.204;2023-04-28T10:42:55;98401.06;;;23.12;82.22
13765;BME280;6953;48.810;9.204;2023-04-28T10:48:51;98402.44;;;22.00;88.41
13765;BME280;6953;48.810;9.204;2023-04-28T10:56:19;98153.09;;;20.05;91.49
13765;BME280;6953;48.810;9.204;2023-04-28T10:58:59;98388.06;;;21.67;91.13
13765;BME280;6953;48.810;9.204;2023-04-28T11:01:28;98400.34;;;21.60;89.52
13765;BME280;6953;48.810;9.204;2023-04-28T11:04:07;98383.38;;;21.09;90.62
13765;BME280;6953;48.810;9.204;2023-04-28T11:07:07;98402.28;;;20.81;91.73
13765;BME280;6953;48.810;9.204;2023-04-28T11:12:04;98369.72;;;20.77;91.26
13765;BME280;6953;48.810;9.204;2023-04-28T11:14:33;98415.41;;;21.26;90.91
13765;BME280;6953;48.810;9.204;2023-04-28T11:17:04;98395.63;;;21.37;90.14
13765;BME280;6953;48.810;9.204;2023-04-28T11:19:35;98375.91;;;21.55;88.88
13765;BME280;6953;48.810;9.204;2023-04-28T11:22:05;98396.94;;;21.76;87.54
13765;BME280;6953;48.810;9.204;2023-04-28T11:24:36;98377.97;;;21.44;88.44
13765;BME280;6953;48.810;9.204;2023-04-28T11:27:04;98399.19;;;21.45;90.97
13765;BME280;6953;48.810;9.204;2023-04-28T11:29:38;98400.94;;;21.72;90.71
13765;BME280;6953;48.810;9.204;2023-04-28T11:32:06;98401.41;;;21.93;89.80
13765;BME280;6953;48.810;9.204;2023-04-28T11:34:34;98413.38;;;21.89;88.95
13765;BME280;6953;48.810;9.204;2023-04-28T11:37:01;98386.50;;;22.15;87.14
13765;BME280;6953;48.810;9.204;2023-04-28T11:39:32;98390.75;;;22.83;82.70
13765;BME280;6953;48.810;9.204;2023-04-28T11:42:09;98390.84;;;23.15;79.48
13765;BME280;6953;48.810;9.204;2023-04-28T11:44:36;98405.72;;;23.17;78.67
13765;BME280;6953;48.810;9.204;2023-04-28T11:47:03;98390.50;;;23.34;78.08
13765;BME280;6953;48.810;9.204;2023-04-28T11:49:44;98392.19;;;23.11;79.51
13765;BME280;6953;48.810;9.204;2023-04-28T11:52:11;98387.53;;;22.64;81.97
13765;BME280;6953;48.810;9.204;2023-04-28T11:54:39;98379.94;;;22.93;81.26
13765;BME280;6953;48.810;9.204;2023-04-28T11:57:17;98384.47;;;23.56;78.47
13765;BME280;6953;48.810;9.204;2023-04-28T11:59:44;98372.41;;;23.68;77.04
13765;BME280;6953;48.810;9.204;2023-04-28T12:02:13;98384.56;;;24.10;75.19
13765;BME280;6953;48.810;9.204;2023-04-28T12:04:41;98378.94;;;24.35;71.84
13765;BME280;6953;48.810;9.204;2023-04-28T12:10:14;98385.81;;;23.52;74.44
13765;BME280;6953;48.810;9.204;2023-04-28T12:12:33;98379.09;;;23.96;73.49
13765;BME280;6953;48.810;9.204;2023-04-28T12:15:04;98375.56;;;24.49;70.49
13765;BME280;6953;48.810;9.204;2023-04-28T12:17:32;98394.28;;;24.65;69.82
13765;BME280;6953;48.810;9.204;2023-04-28T12:20:00;98366.56;;;24.73;68.44
13765;BME280;6953;48.810;9.204;2023-04-28T12:22:27;98384.28;;;24.82;68.68
13765;BME280;6953;48.810;9.204;2023-04-28T12:25:04;98170.59;;;23.37;67.88
13765;BME280;6953;48.810;9.204;2023-04-28T12:27:31;98389.19;;;24.32;66.97
13765;BME280;6953;48.810;9.204;2023-04-28T12:29:57;98384.25;;;24.05;68.15
13765;BME280;6953;48.810;9.204;2023-04-28T12:32:44;98376.13;;;23.59;69.23
13765;BME280;6953;48.810;9.204;2023-04-28T12:35:09;98383.81;;;23.30;69.91
13765;BME280;6953;48.810;9.204;2023-04-28T12:37:36;98380.72;;;22.85;71.91
13765;BME280;6953;48.810;9.204;2023-04-28T12:40:05;98398.16;;;22.40;78.77
13765;BME280;6953;48.810;9.204;2023-04-28T12:42:31;98404.19;;;21.83;82.72
13765;BME280;6953;48.810;9.204;2023-04-28T12:44:57;98385.56;;;21.13;88.57
13765;BME280;6953;48.810;9.204;2023-04-28T12:47:23;98395.38;;;20.78;91.39
13765;BME280;6953;48.810;9.204;2023-04-28T12:49:49;98406.47;;;20.29;96.65
13765;BME280;6953;48.810;9.204;2023-04-28T12:52:20;98395.41;;;19.79;97.88
13765;BME280;6953;48.810;9.204;2023-04-28T12:54:46;98403.09;;;19.36;95.34
13765;BME280;6953;48.810;9.204;2023-04-28T12:57:16;98425.03;;;19.09;96.84
13765;BME280;6953;48.810;9.204;2023-04-28T12:59:47;98406.84;;;18.95;97.98
13765;BME280;6953;48.810;9.204;2023-04-28T13:02:14;98422.97;;;19.03;97.89
13765;BME280;6953;48.810;9.204;2023-04-28T13:04:40;98349.06;;;18.88;97.40
13765;BME280;6953;48.810;9.204;2023-04-28T13:07:19;98366.66;;;19.46;96.73
13765;BME280;6953;48.810;9.204;2023-04-28T13:09:45;98373.22;;;20.06;94.75
13765;BME280;6953;48.810;9.204;2023-04-28T13:12:11;98338.53;;;20.16;93.15
13765;BME280;6953;48.810;9.204;2023-04-28T13:14:38;98332.78;;;20.11;93.80
13765;BME280;6953;48.810;9.204;2023-04-28T13:17:03;98356.00;;;20.01;93.25
13765;BME280;6953;48.810;9.204;2023-04-28T13:19:29;98370.03;;;20.20;93.26
13765;BME280;6953;48.810;9.204;2023-04-28T13:21:58;98379.94;;;20.55;92.51
13765;BME280;6953;48.810;9.204;2023-04-28T13:24:24;98377.50;;;20.88;90.99
13765;BME280;6953;48.810;9.204;2023-04-28T13:26:51;98365.06;;;20.79;87.99
13765;BME280;6953;48.810;9.204;2023-04-28T13:29:17;98379.38;;;20.61;88.07
13765;BME280;6953;48.810;9.204;2023-04-28T13:31:43;98373.28;;;20.41;87.73
13765;BME280;6953;48.810;9.204;2023-04-28T13:34:10;98368.22;;;20.65;87.99
13765;BME280;6953;48.810;9.204;2023-04-28T13:36:41;98367.69;;;21.49;85.34
13765;BME280;6953;48.810;9.204;2023-04-28T13:39:07;98407.38;;;22.20;81.07
13765;BME280;6953;48.810;9.204;2023-04-28T13:41:39;98375.47;;;22.18;79.71
13765;BME280;6953;48.810;9.204;2023-04-28T13:44:05;98348.31;;;21.98;80.03
13765;BME280;6953;48.810;9.204;2023-04-28T13:46:31;98359.53;;;22.01;80.38